createdAt,value
2022-08-09T00:00:48.565Z,100325.09
2022-08-09T00:01:54.566Z,100346.69
2022-08-09T00:02:57.112Z,100306.47
2022-08-09T00:04:10.028Z,100354.25
2022-08-09T00:06:17.699Z,100375.56
2022-08-09T00:06:44.313Z,100323.81
2022-08-09T00:07:47.524Z,100367.72
2022-08-09T00:08:50.457Z,100329.81
2022-08-09T00:09:53.621Z,100359.72
2022-08-09T00:10:55.303Z,100267.72
2022-08-09T00:12:04.578Z,100369.19
2022-08-09T00:13:16.971Z,100381.03
2022-08-09T00:14:30.649Z,100386.28
2022-08-09T00:16:00.142Z,100361.53
2022-08-09T00:17:01.736Z,100322.47
2022-08-09T00:18:05.994Z,100382.91
2022-08-09T00:19:13.515Z,100370.56
2022-08-09T00:20:21.183Z,100354.16
2022-08-09T00:21:23.735Z,100336.44
2022-08-09T00:22:35.082Z,100265.06
2022-08-09T00:23:57.368Z,100387.09
2022-08-09T00:24:59.989Z,100393.22
2022-08-09T00:26:08.674Z,100350.72
2022-08-09T00:27:13.012Z,100298.66
2022-08-09T00:28:14.791Z,100364.00
2022-08-09T00:29:39.582Z,100366.75
2022-08-09T00:30:39.164Z,100375.16
2022-08-09T00:31:58.401Z,100267.88
2022-08-09T00:33:01.779Z,100380.19
2022-08-09T00:34:03.576Z,100388.59
2022-08-09T00:35:06.305Z,100364.94
2022-08-09T00:36:09.451Z,100268.69
2022-08-09T00:37:11.154Z,100388.94
2022-08-09T00:38:13.689Z,100342.81
2022-08-09T00:40:12.391Z,100372.78
2022-08-09T00:40:40.113Z,100286.59
2022-08-09T00:44:15.133Z,100348.69
2022-08-09T00:44:25.668Z,100339.69
2022-08-09T00:44:37.870Z,100375.16
2022-08-09T00:45:39.530Z,100377.47
2022-08-09T00:46:56.865Z,100327.88
2022-08-09T00:48:05.596Z,100378.13
2022-08-09T00:49:07.606Z,100387.16
2022-08-09T00:50:14.828Z,100310.16
2022-08-09T00:51:17.843Z,100372.78
2022-08-09T00:52:20.434Z,100379.19
2022-08-09T00:53:24.279Z,100336.53
2022-08-09T00:54:31.367Z,100341.38
2022-08-09T00:56:05.521Z,100347.66
2022-08-09T00:57:00.686Z,100366.56
2022-08-09T00:58:03.150Z,100387.66
2022-08-09T00:59:07.623Z,100347.91
2022-08-09T01:00:21.725Z,100353.97
2022-08-09T01:01:44.863Z,100389.38
2022-08-09T01:02:49.471Z,100402.31
2022-08-09T01:03:59.311Z,100384.69
2022-08-09T01:05:14.251Z,100386.66
2022-08-09T01:06:35.139Z,100384.16
2022-08-09T01:08:00.960Z,100380.88
2022-08-09T01:09:23.279Z,100381.44
2022-08-09T01:10:40.095Z,100307.66
2022-08-09T01:12:03.149Z,100376.59
2022-08-09T01:13:16.874Z,100382.03
2022-08-09T01:14:36.727Z,100385.06
2022-08-09T01:15:52.611Z,100386.28
2022-08-09T01:17:17.893Z,100370.47
2022-08-09T01:18:29.894Z,100379.88
2022-08-09T01:20:01.692Z,100389.31
2022-08-09T01:21:13.586Z,100382.53
2022-08-09T01:22:40.726Z,100386.88
2022-08-09T01:24:07.447Z,100394.03
2022-08-09T01:25:37.463Z,100396.06
2022-08-09T01:26:56.160Z,100404.06
2022-08-09T01:28:01.060Z,100382.06
2022-08-09T01:29:04.534Z,100353.47
2022-08-09T01:30:28.843Z,100362.63
2022-08-09T01:32:30.653Z,100352.34
2022-08-09T01:32:58.037Z,100360.31
2022-08-09T01:34:04.282Z,100378.81
2022-08-09T01:35:37.510Z,100395.88
2022-08-09T01:36:41.955Z,100362.47
2022-08-09T01:38:08.231Z,100378.44
2022-08-09T01:39:07.541Z,100323.31
2022-08-09T01:40:10.312Z,100369.53
2022-08-09T01:41:29.836Z,100388.06
2022-08-09T01:42:33.519Z,100329.81
2022-08-09T01:43:48.025Z,100406.66
2022-08-09T01:44:54.900Z,100411.22
2022-08-09T01:45:57.998Z,100405.56
2022-08-09T01:47:01.721Z,100407.75
2022-08-09T01:48:06.191Z,100329.59
2022-08-09T01:49:12.775Z,100411.53
2022-08-09T01:50:17.139Z,100305.94
2022-08-09T01:51:22.830Z,100435.22
2022-08-09T01:52:26.211Z,100360.72
2022-08-09T01:53:41.464Z,100362.81
2022-08-09T01:54:50.693Z,100413.72
2022-08-09T01:55:54.376Z,100404.94
2022-08-09T01:56:58.930Z,100356.19
2022-08-09T01:58:06.780Z,100392.16
2022-08-09T01:59:16.098Z,100401.19
2022-08-09T02:00:35.279Z,100413.59
2022-08-09T02:01:59.103Z,100399.72
2022-08-09T02:03:05.112Z,100426.84
2022-08-09T02:04:09.728Z,100356.03
2022-08-09T02:05:15.342Z,100383.22
2022-08-09T02:06:45.552Z,100346.09
2022-08-09T02:08:41.014Z,100386.94
2022-08-09T02:09:26.948Z,100419.53
2022-08-09T02:10:51.032Z,100413.59
2022-08-09T02:11:54.451Z,100415.06
2022-08-09T02:13:02.939Z,100408.31
2022-08-09T02:14:07.839Z,100422.81
2022-08-09T02:15:16.664Z,100405.44
2022-08-09T02:16:18.921Z,100424.47
2022-08-09T02:18:10.611Z,100430.03
2022-08-09T02:19:00.395Z,100386.97
2022-08-09T02:20:02.431Z,100384.91
2022-08-09T02:21:09.466Z,100364.78
2022-08-09T02:22:40.661Z,100433.00
2022-08-09T02:23:54.540Z,100414.03
2022-08-09T02:25:00.219Z,100432.81
2022-08-09T02:26:03.447Z,100436.72
2022-08-09T02:27:09.026Z,100428.88
2022-08-09T02:28:19.130Z,100380.34
2022-08-09T02:29:23.808Z,100431.53
2022-08-09T02:30:32.428Z,100413.72
2022-08-09T02:31:41.166Z,100416.59
2022-08-09T02:32:47.576Z,100388.94
2022-08-09T02:34:06.737Z,100425.69
2022-08-09T02:35:25.703Z,100376.16
2022-08-09T02:36:44.979Z,100431.53
2022-08-09T02:37:55.508Z,100414.69
2022-08-09T02:39:03.180Z,100408.06
2022-08-09T02:40:15.745Z,100431.91
2022-08-09T02:41:34.024Z,100419.16
2022-08-09T02:42:39.419Z,100441.56
2022-08-09T02:43:55.132Z,100409.28
2022-08-09T02:45:07.195Z,100438.00
2022-08-09T02:46:13.380Z,100425.47
2022-08-09T02:47:18.920Z,100399.06
2022-08-09T02:48:31.225Z,100434.44
2022-08-09T02:49:41.353Z,100419.66
2022-08-09T02:50:55.756Z,100436.78
2022-08-09T02:51:59.613Z,100369.56
2022-08-09T02:53:17.376Z,100399.47
2022-08-09T02:54:30.887Z,100383.00
2022-08-09T02:55:46.372Z,100386.00
2022-08-09T02:56:53.921Z,100431.72
2022-08-09T02:58:37.039Z,100442.63
2022-08-09T02:59:26.658Z,100433.66
2022-08-09T03:00:57.657Z,100435.66
2022-08-09T03:02:06.701Z,100377.38
2022-08-09T03:03:11.390Z,100433.75
2022-08-09T03:04:19.110Z,100446.59
2022-08-09T03:05:22.821Z,100339.59
2022-08-09T03:06:27.612Z,100424.28
2022-08-09T03:07:30.884Z,100445.28
2022-08-09T03:08:35.853Z,100397.81
2022-08-09T03:09:42.617Z,100399.22
2022-08-09T03:10:50.900Z,100387.34
2022-08-09T03:12:05.492Z,100432.38
2022-08-09T03:13:10.123Z,100430.34
2022-08-09T03:14:13.476Z,100411.56
2022-08-09T03:15:16.100Z,100422.50
2022-08-09T03:16:21.294Z,100434.19
2022-08-09T03:17:27.048Z,100439.00
2022-08-09T03:18:31.305Z,100370.50
2022-08-09T03:19:59.520Z,100430.41
2022-08-09T03:20:58.026Z,100411.78
2022-08-09T03:22:03.225Z,100402.88
2022-08-09T03:23:14.945Z,100394.44
2022-08-09T03:24:31.717Z,100416.78
2022-08-09T03:25:58.035Z,100406.38
2022-08-09T03:27:02.928Z,100373.91
2022-08-09T03:28:11.273Z,100416.00
2022-08-09T03:29:22.772Z,100380.81
2022-08-09T03:30:33.188Z,100393.75
2022-08-09T03:31:42.385Z,100428.91
2022-08-09T03:32:45.784Z,100446.38
2022-08-09T03:33:54.545Z,100430.78
2022-08-09T03:34:56.794Z,100415.13
2022-08-09T03:36:13.510Z,100410.56
2022-08-09T03:37:55.754Z,100364.47
2022-08-09T03:38:43.060Z,100434.44
2022-08-09T03:39:48.702Z,100445.13
2022-08-09T03:40:58.077Z,100427.53
2022-08-09T03:42:06.109Z,100439.06
2022-08-09T03:43:08.617Z,100453.47
2022-08-09T03:44:13.175Z,100418.81
2022-08-09T03:45:17.400Z,100385.59
2022-08-09T03:46:39.330Z,100410.28
2022-08-09T03:47:42.075Z,100425.75
2022-08-09T03:48:52.971Z,100407.72
2022-08-09T03:49:58.257Z,100383.19
2022-08-09T03:51:00.800Z,100402.81
2022-08-09T03:52:04.389Z,100412.38
2022-08-09T03:53:10.765Z,100422.75
2022-08-09T03:54:14.695Z,100429.31
2022-08-09T03:55:17.850Z,100443.59
2022-08-09T03:56:19.768Z,100420.22
2022-08-09T03:57:21.825Z,100415.63
2022-08-09T03:58:23.641Z,100436.28
2022-08-09T03:59:33.006Z,100453.34
2022-08-09T04:00:48.951Z,100451.72
2022-08-09T04:01:51.506Z,100411.47
2022-08-09T04:02:55.577Z,100419.94
2022-08-09T04:04:03.851Z,100433.00
2022-08-09T04:05:14.009Z,100417.44
2022-08-09T04:06:28.916Z,100461.16
2022-08-09T04:07:47.836Z,100422.34
2022-08-09T04:08:53.564Z,100411.34
2022-08-09T04:09:55.441Z,100401.88
2022-08-09T04:11:01.588Z,100319.25
2022-08-09T04:12:11.768Z,100447.97
2022-08-09T04:13:13.874Z,100330.34
2022-08-09T04:14:37.305Z,100452.34
2022-08-09T04:16:18.613Z,100468.34
2022-08-09T04:17:08.959Z,100418.63
2022-08-09T04:18:17.796Z,100456.75
2022-08-09T04:19:30.369Z,100445.91
2022-08-09T04:20:42.046Z,100463.06
2022-08-09T04:21:46.366Z,100378.78
2022-08-09T04:22:49.044Z,100442.34
2022-08-09T04:23:57.669Z,100468.59
2022-08-09T04:25:01.460Z,100496.59
2022-08-09T04:26:04.835Z,100439.59
2022-08-09T04:27:08.399Z,100409.72
2022-08-09T04:28:10.532Z,100417.47
2022-08-09T04:29:15.779Z,100465.47
2022-08-09T04:30:20.940Z,100460.47
2022-08-09T04:31:26.287Z,100478.81
2022-08-09T04:32:39.798Z,100463.16
2022-08-09T04:33:52.799Z,100459.47
2022-08-09T04:34:58.697Z,100411.50
2022-08-09T04:36:03.260Z,100412.78
2022-08-09T04:37:04.872Z,100363.03
2022-08-09T04:38:06.571Z,100369.66
2022-08-09T04:39:11.317Z,100495.13
2022-08-09T04:40:29.117Z,100471.63
2022-08-09T04:41:43.955Z,100479.34
2022-08-09T04:42:45.718Z,100455.59
2022-08-09T04:44:05.266Z,100487.88
2022-08-09T04:45:11.616Z,100463.28
2022-08-09T04:46:19.435Z,100481.69
2022-08-09T04:47:58.559Z,100470.22
2022-08-09T04:48:58.405Z,100464.97
2022-08-09T04:50:00.420Z,100503.59
2022-08-09T04:51:02.047Z,100481.69
2022-08-09T04:52:05.136Z,100417.34
2022-08-09T04:53:13.161Z,100503.94
2022-08-09T04:54:15.367Z,100475.03
2022-08-09T04:55:19.074Z,100510.06
2022-08-09T04:56:26.111Z,100492.16
2022-08-09T04:57:58.444Z,100475.72
2022-08-09T04:58:50.810Z,100433.00
2022-08-09T04:59:55.619Z,100503.38
2022-08-09T05:00:57.908Z,100314.84
2022-08-09T05:02:02.916Z,100525.44
2022-08-09T05:03:12.877Z,100484.63
2022-08-09T05:04:30.871Z,100496.78
2022-08-09T05:05:52.089Z,100481.91
2022-08-09T05:06:55.004Z,100513.16
2022-08-09T05:07:58.302Z,100473.13
2022-08-09T05:09:01.269Z,100509.81
2022-08-09T05:10:04.327Z,100414.53
2022-08-09T05:11:07.478Z,100484.66
2022-08-09T05:12:11.162Z,100489.34
2022-08-09T05:13:14.617Z,100498.88
2022-08-09T05:14:16.339Z,100497.16
2022-08-09T05:15:24.698Z,100487.72
2022-08-09T05:16:58.215Z,100490.59
2022-08-09T05:18:42.646Z,100503.88
2022-08-09T05:19:25.700Z,100512.41
2022-08-09T05:20:29.726Z,100502.00
2022-08-09T05:21:46.442Z,100507.25
2022-08-09T05:23:59.498Z,100504.53
2022-08-09T05:24:12.181Z,100510.38
2022-08-09T05:25:16.490Z,100506.44
2022-08-09T05:26:26.643Z,100524.63
2022-08-09T05:27:46.306Z,100499.44
2022-08-09T05:28:49.679Z,100466.13
2022-08-09T05:29:53.837Z,100452.44
2022-08-09T05:30:55.974Z,100503.41
2022-08-09T05:32:00.599Z,100516.91
2022-08-09T05:33:02.255Z,100347.94
2022-08-09T05:34:04.027Z,100439.63
2022-08-09T05:35:06.306Z,100491.25
2022-08-09T05:36:09.355Z,100465.19
2022-08-09T05:37:13.874Z,100496.41
2022-08-09T05:38:21.960Z,100460.31
2022-08-09T05:39:29.542Z,100483.38
2022-08-09T05:40:31.515Z,100476.44
2022-08-09T05:41:33.160Z,100522.63
2022-08-09T05:42:36.303Z,100390.66
2022-08-09T05:43:39.002Z,100443.78
2022-08-09T05:44:50.469Z,100520.88
2022-08-09T05:45:56.659Z,100495.59
2022-08-09T05:46:58.954Z,100459.00
2022-08-09T05:48:01.262Z,100381.88
2022-08-09T05:49:03.337Z,100523.78
2022-08-09T05:50:26.744Z,100532.28
2022-08-09T05:51:46.073Z,100505.31
2022-08-09T05:52:53.842Z,100467.56
2022-08-09T05:53:57.339Z,100521.59
2022-08-09T05:55:06.716Z,100518.91
2022-08-09T05:56:09.119Z,100500.13
2022-08-09T05:57:19.189Z,100505.53
2022-08-09T05:58:20.999Z,100492.09
2022-08-09T05:59:23.042Z,100498.78
2022-08-09T06:00:30.225Z,100507.03
2022-08-09T06:01:33.899Z,100549.19
2022-08-09T06:02:46.800Z,100541.97
2022-08-09T06:03:54.740Z,100409.97
2022-08-09T06:05:00.706Z,100533.22
2022-08-09T06:06:06.001Z,100433.34
2022-08-09T06:07:09.349Z,100551.81
2022-08-09T06:08:11.423Z,100518.38
2022-08-09T06:09:55.105Z,100501.44
2022-08-09T06:10:40.658Z,100548.59
2022-08-09T06:11:57.325Z,100543.63
2022-08-09T06:13:12.507Z,100540.56
2022-08-09T06:14:20.737Z,100517.69
2022-08-09T06:15:22.544Z,100522.47
2022-08-09T06:16:29.604Z,100504.38
2022-08-09T06:17:40.350Z,100511.13
2022-08-09T06:18:42.324Z,100515.16
2022-08-09T06:19:43.995Z,100544.50
2022-08-09T06:20:54.404Z,100545.84
2022-08-09T06:21:59.031Z,100534.16
2022-08-09T06:23:00.727Z,100518.22
2022-08-09T06:24:02.690Z,100576.09
2022-08-09T06:25:04.912Z,100528.56
2022-08-09T06:26:10.443Z,100511.19
2022-08-09T06:27:15.726Z,100562.47
2022-08-09T06:28:17.528Z,100545.06
2022-08-09T06:29:22.339Z,100513.06
2022-08-09T06:30:26.451Z,100555.47
2022-08-09T06:31:39.283Z,100545.78
2022-08-09T06:33:13.606Z,100546.56
2022-08-09T06:34:05.367Z,100506.19
2022-08-09T06:35:07.451Z,100493.41
2022-08-09T06:36:11.957Z,100557.38
2022-08-09T06:37:15.671Z,100515.72
2022-08-09T06:38:17.400Z,100455.16
2022-08-09T06:39:21.099Z,100545.75
2022-08-09T06:40:24.210Z,100539.97
2022-08-09T06:42:07.492Z,100527.28
2022-08-09T06:42:48.440Z,100517.19
2022-08-09T06:43:50.348Z,100521.16
2022-08-09T06:44:55.541Z,100522.13
2022-08-09T06:46:06.493Z,100578.19
2022-08-09T06:47:13.761Z,100527.72
2022-08-09T06:48:16.797Z,100552.47
2022-08-09T06:50:12.795Z,100425.06
2022-08-09T06:50:54.138Z,100529.25
2022-08-09T06:51:55.768Z,100529.25
2022-08-09T06:52:57.640Z,100448.88
2022-08-09T06:54:00.935Z,100534.84
2022-08-09T06:55:10.098Z,100508.72
2022-08-09T06:56:14.635Z,100522.50
2022-08-09T06:57:16.308Z,100490.34
2022-08-09T07:00:47.719Z,100525.00
2022-08-09T07:00:51.798Z,100544.06
2022-08-09T07:01:01.598Z,100526.56
2022-08-09T07:02:04.662Z,100503.19
2022-08-09T07:03:06.956Z,100547.72
2022-08-09T07:04:10.422Z,100539.56
2022-08-09T07:05:12.315Z,100554.75
2022-08-09T07:06:14.821Z,100552.41
2022-08-09T07:07:58.430Z,100533.16
2022-08-09T07:08:39.597Z,100523.97
2022-08-09T07:09:56.022Z,100563.19
2022-08-09T07:11:03.766Z,100462.16
2022-08-09T07:12:06.122Z,100535.88
2022-08-09T07:13:27.381Z,100549.47
2022-08-09T07:14:29.696Z,100518.81
2022-08-09T07:16:39.286Z,100517.22
2022-08-09T07:16:57.889Z,100547.09
2022-08-09T07:18:02.429Z,100553.16
2022-08-09T07:19:05.807Z,100549.97
2022-08-09T07:20:10.409Z,100557.72
2022-08-09T07:21:11.994Z,100529.06
2022-08-09T07:22:13.724Z,100550.81
2022-08-09T07:23:18.989Z,100530.09
2022-08-09T07:24:21.900Z,100560.91
2022-08-09T07:25:39.037Z,100556.03
2022-08-09T07:26:45.254Z,100502.69
2022-08-09T07:27:55.487Z,100460.03
2022-08-09T07:29:08.278Z,100563.94
2022-08-09T07:30:14.856Z,100563.50
2022-08-09T07:31:16.700Z,100568.78
2022-08-09T07:32:18.413Z,100470.03
2022-08-09T07:33:24.717Z,100540.78
2022-08-09T07:34:30.263Z,100493.25
2022-08-09T07:35:32.017Z,100549.28
2022-08-09T07:36:53.571Z,100547.41
2022-08-09T07:37:59.396Z,100565.97
2022-08-09T07:39:02.343Z,100551.66
2022-08-09T07:40:04.828Z,100565.66
2022-08-09T07:41:11.634Z,100540.50
2022-08-09T07:42:14.808Z,100554.56
2022-08-09T07:43:17.113Z,100512.81
2022-08-09T07:44:18.892Z,100499.81
2022-08-09T07:45:39.787Z,100559.47
2022-08-09T07:46:43.167Z,100504.78
2022-08-09T07:48:00.815Z,100532.78
2022-08-09T07:49:06.436Z,100527.38
2022-08-09T07:50:09.969Z,100453.59
2022-08-09T07:52:05.844Z,100552.81
2022-08-09T07:52:35.646Z,100535.47
2022-08-09T07:54:05.320Z,100542.28
2022-08-09T07:55:01.061Z,100492.47
2022-08-09T07:56:26.684Z,100537.75
2022-08-09T07:57:35.915Z,100479.72
2022-08-09T07:58:38.045Z,100489.63
2022-08-09T07:59:45.952Z,100514.47
2022-08-09T08:01:06.778Z,100529.31
2022-08-09T08:02:19.868Z,100517.06
2022-08-09T08:03:22.007Z,100554.69
2022-08-09T08:04:32.154Z,100543.97
2022-08-09T08:05:54.442Z,100551.66
2022-08-09T08:07:00.389Z,100521.22
2022-08-09T08:09:01.360Z,100540.44
2022-08-09T08:09:42.932Z,100520.28
2022-08-09T08:11:03.413Z,100544.81
2022-08-09T08:12:24.666Z,100527.00
2022-08-09T08:13:38.188Z,100547.91
2022-08-09T08:14:52.318Z,100549.50
2022-08-09T08:15:54.870Z,100507.59
2022-08-09T08:17:00.576Z,100539.69
2022-08-09T08:18:02.938Z,100531.75
2022-08-09T08:19:05.490Z,100533.19
2022-08-09T08:20:12.604Z,100536.88
2022-08-09T08:21:15.280Z,100546.41
2022-08-09T08:22:17.250Z,100536.53
2022-08-09T08:23:27.297Z,100540.75
2022-08-09T08:24:39.832Z,100551.84
2022-08-09T08:25:46.693Z,100536.34
2022-08-09T08:26:55.731Z,100482.47
2022-08-09T08:27:58.717Z,100539.88
2022-08-09T08:29:00.396Z,100542.09
2022-08-09T08:30:05.100Z,100545.28
2022-08-09T08:31:14.333Z,100551.22
2022-08-09T08:32:24.309Z,100514.94
2022-08-09T08:33:49.521Z,100479.59
2022-08-09T08:34:55.409Z,100531.66
2022-08-09T08:36:00.928Z,100510.66
2022-08-09T08:37:05.644Z,100512.69
2022-08-09T08:38:11.819Z,100522.94
2022-08-09T08:39:14.702Z,100503.19
2022-08-09T08:40:19.489Z,100548.25
2022-08-09T08:41:22.295Z,100543.22
2022-08-09T08:42:32.025Z,100544.69
2022-08-09T08:43:34.316Z,100524.22
2022-08-09T08:44:38.055Z,100507.59
2022-08-09T08:45:51.735Z,100529.81
2022-08-09T08:47:12.380Z,100547.00
2022-08-09T08:48:19.303Z,100535.75
2022-08-09T08:49:22.636Z,100532.84
2022-08-09T08:50:40.060Z,100521.97
2022-08-09T08:52:01.569Z,100538.09
2022-08-09T08:53:15.681Z,100512.97
2022-08-09T08:54:20.542Z,100454.31
2022-08-09T08:55:32.158Z,100517.25
2022-08-09T08:56:38.186Z,100498.88
2022-08-09T08:57:42.283Z,100512.03
2022-08-09T08:58:46.581Z,100539.28
2022-08-09T08:59:53.783Z,100480.31
2022-08-09T09:01:02.965Z,100542.34
2022-08-09T09:02:30.797Z,100512.50
2022-08-09T09:03:37.913Z,100525.00
2022-08-09T09:04:52.836Z,100522.56
2022-08-09T09:06:00.833Z,100511.09
2022-08-09T09:07:11.068Z,100475.84
2022-08-09T09:08:30.157Z,100507.06
2022-08-09T09:09:58.417Z,100486.69
2022-08-09T09:10:56.902Z,100488.50
2022-08-09T09:12:00.225Z,100522.91
2022-08-09T09:13:09.334Z,100529.44
2022-08-09T09:14:19.788Z,100519.22
2022-08-09T09:15:28.694Z,100505.09
2022-08-09T09:16:34.137Z,100506.41
2022-08-09T09:17:48.214Z,100516.03
2022-08-09T09:19:15.619Z,100515.34
2022-08-09T09:20:17.188Z,100534.44
2022-08-09T09:21:26.378Z,100493.03
2022-08-09T09:22:29.427Z,100468.72
2022-08-09T09:23:49.678Z,100517.84
2022-08-09T09:26:01.762Z,100493.19
2022-08-09T09:26:25.876Z,100513.19
2022-08-09T09:28:05.425Z,100521.88
2022-08-09T09:29:04.320Z,100513.06
2022-08-09T09:30:37.359Z,100478.72
2022-08-09T09:32:06.542Z,100463.69
2022-08-09T09:33:16.140Z,100519.59
2022-08-09T09:34:20.722Z,100493.78
2022-08-09T09:35:24.579Z,100493.88
2022-08-09T09:36:38.543Z,100508.84
2022-08-09T09:37:54.077Z,100528.81
2022-08-09T09:38:58.689Z,100517.03
2022-08-09T09:40:00.861Z,100487.06
2022-08-09T09:41:04.731Z,100520.88
2022-08-09T09:42:10.431Z,100492.44
2022-08-09T09:43:20.954Z,100494.66
2022-08-09T09:44:34.339Z,100493.88
2022-08-09T09:47:32.640Z,100532.25
2022-08-09T09:48:56.397Z,100513.19
2022-08-09T09:50:14.731Z,100536.69
2022-08-09T09:51:26.034Z,100523.19
2022-08-09T09:52:54.196Z,100514.84
2022-08-09T09:54:20.344Z,100518.47
2022-08-09T09:55:28.338Z,100501.81
2022-08-09T09:56:37.071Z,100514.91
2022-08-09T09:58:15.902Z,100510.06
2022-08-09T09:59:35.570Z,100488.59
2022-08-09T10:00:54.027Z,100500.97
2022-08-09T10:02:01.348Z,100397.25
2022-08-09T10:03:09.346Z,100504.72
2022-08-09T10:04:22.588Z,100492.91
2022-08-09T10:06:00.993Z,100497.53
2022-08-09T10:06:54.456Z,100516.16
2022-08-09T10:08:27.364Z,100501.00
2022-08-09T10:09:27.853Z,100504.19
2022-08-09T10:10:31.648Z,100429.97
2022-08-09T10:11:59.377Z,100506.47
2022-08-09T10:12:56.194Z,100474.59
2022-08-09T10:13:58.191Z,100508.06
2022-08-09T10:15:17.262Z,100486.31
2022-08-09T10:16:56.587Z,100494.78
2022-08-09T10:18:11.016Z,100515.47
2022-08-09T10:19:13.980Z,100506.19
2022-08-09T10:20:27.592Z,100502.28
2022-08-09T10:21:48.817Z,100499.88
2022-08-09T10:23:01.091Z,100489.13
2022-08-09T10:24:04.963Z,100480.72
2022-08-09T10:25:11.304Z,100497.75
2022-08-09T10:26:16.358Z,100455.34
2022-08-09T10:27:28.533Z,100499.59
2022-08-09T10:28:38.376Z,100483.78
2022-08-09T10:30:49.326Z,100416.66
2022-08-09T10:32:40.364Z,100485.72
2022-08-09T10:34:10.633Z,100471.25
2022-08-09T10:35:11.144Z,100505.94
2022-08-09T10:36:16.495Z,100499.13
2022-08-09T10:37:23.499Z,100491.47
2022-08-09T10:38:54.834Z,100476.91
2022-08-09T10:39:49.353Z,100485.28
2022-08-09T10:40:51.494Z,100478.78
2022-08-09T10:41:53.797Z,100490.28
2022-08-09T10:42:57.156Z,100493.50
2022-08-09T10:44:02.030Z,100498.31
2022-08-09T10:45:10.571Z,100492.72
2022-08-09T10:46:29.526Z,100490.53
2022-08-09T10:48:26.151Z,100494.59
2022-08-09T10:49:49.996Z,100497.34
2022-08-09T10:51:29.777Z,100503.63
2022-08-09T10:53:10.364Z,100504.00
2022-08-09T10:54:14.033Z,100481.69
2022-08-09T10:55:25.471Z,100500.91
2022-08-09T10:56:33.980Z,100483.09
2022-08-09T10:57:37.677Z,100502.56
2022-08-09T10:58:39.900Z,100491.75
2022-08-09T10:59:55.772Z,100490.38
2022-08-09T11:03:03.068Z,100517.03
2022-08-09T11:03:18.755Z,100499.97
2022-08-09T11:04:19.859Z,100501.63
2022-08-09T11:05:31.621Z,100501.25
2022-08-09T11:06:37.285Z,100495.78
2022-08-09T11:07:58.174Z,100491.00
2022-08-09T11:09:15.727Z,100497.81
2022-08-09T11:10:53.233Z,100500.66
2022-08-09T11:11:59.439Z,100496.00
2022-08-09T11:13:49.198Z,100488.50
2022-08-09T11:14:42.043Z,100502.91
2022-08-09T11:16:04.444Z,100492.69
2022-08-09T11:17:15.838Z,100492.84
2022-08-09T11:18:45.815Z,100500.78
2022-08-09T11:20:11.425Z,100498.13
2022-08-09T11:21:57.381Z,100489.03
2022-08-09T11:23:12.113Z,100494.97
2022-08-09T11:24:14.865Z,100458.59
2022-08-09T11:25:36.320Z,100496.19
2022-08-09T11:26:54.693Z,100498.44
2022-08-09T11:28:05.380Z,100500.47
2022-08-09T11:30:06.451Z,100494.13
2022-08-09T11:31:53.138Z,100495.09
2022-08-09T11:32:59.522Z,100483.16
2022-08-09T11:34:06.749Z,100462.47
2022-08-09T11:35:26.779Z,100488.09
2022-08-09T11:36:44.834Z,100489.25
2022-08-09T11:37:49.814Z,100487.00
2022-08-09T11:39:02.753Z,100469.69
2022-08-09T11:40:08.204Z,100501.94
2022-08-09T11:41:14.090Z,100486.22
2022-08-09T11:42:47.047Z,100479.28
2022-08-09T11:43:52.062Z,100494.78
2022-08-09T11:44:57.289Z,100478.22
2022-08-09T11:46:05.909Z,100476.53
2022-08-09T11:47:10.941Z,100482.16
2022-08-09T11:48:25.982Z,100476.75
2022-08-09T11:50:55.431Z,100484.16
2022-08-09T11:53:00.770Z,100478.50
2022-08-09T11:53:15.609Z,100470.13
2022-08-09T11:54:29.742Z,100461.06
2022-08-09T11:55:52.322Z,100428.97
2022-08-09T11:57:56.464Z,100457.75
2022-08-09T11:59:00.042Z,100405.78
2022-08-09T12:00:16.200Z,100443.44
2022-08-09T12:02:18.306Z,100461.19
2022-08-09T12:02:59.031Z,100461.19
2022-08-09T12:04:04.856Z,100364.78
2022-08-09T12:05:07.253Z,100365.59
2022-08-09T12:06:24.698Z,100439.53
2022-08-09T12:07:41.120Z,100458.00
2022-08-09T12:08:56.031Z,100454.53
2022-08-09T12:10:02.454Z,100446.78
2022-08-09T12:11:04.646Z,100466.34
2022-08-09T12:12:20.187Z,100464.94
2022-08-09T12:14:08.351Z,100452.09
2022-08-09T12:15:07.857Z,100465.09
2022-08-09T12:16:25.636Z,100480.31
2022-08-09T12:17:43.500Z,100435.09
2022-08-09T12:18:53.930Z,100469.53
2022-08-09T12:19:59.339Z,100450.25
2022-08-09T12:21:04.590Z,100449.19
2022-08-09T12:22:27.213Z,100469.09
2022-08-09T12:23:57.853Z,100456.56
2022-08-09T12:25:11.351Z,100451.28
2022-08-09T12:26:25.587Z,100436.19
2022-08-09T12:28:58.634Z,100433.56
2022-08-09T12:29:14.404Z,100436.91
2022-08-09T12:30:36.349Z,100422.75
2022-08-09T12:32:01.985Z,100429.78
2022-08-09T12:33:02.808Z,100451.09
2022-08-09T12:34:05.228Z,100421.50
2022-08-09T12:35:11.045Z,100456.22
2022-08-09T12:36:27.439Z,100421.06
2022-08-09T12:37:50.411Z,100442.25
2022-08-09T12:38:54.556Z,100442.31
2022-08-09T12:40:03.800Z,100439.22
2022-08-09T12:41:08.454Z,100445.56
2022-08-09T12:42:16.351Z,100441.44
2022-08-09T12:44:05.930Z,100430.94
2022-08-09T12:44:52.203Z,100395.16
2022-08-09T12:45:59.559Z,100408.59
2022-08-09T12:47:02.419Z,100423.25
2022-08-09T12:48:20.550Z,100405.38
2022-08-09T12:49:33.590Z,100430.94
2022-08-09T12:50:37.193Z,100448.84
2022-08-09T12:52:01.337Z,100436.31
2022-08-09T12:53:09.400Z,100445.38
2022-08-09T12:54:19.548Z,100443.84
2022-08-09T12:56:14.539Z,100417.84
2022-08-09T12:56:54.718Z,100411.78
2022-08-09T12:57:59.038Z,100417.50
2022-08-09T12:59:08.035Z,100383.53
2022-08-09T13:00:19.172Z,100421.50
2022-08-09T13:01:28.413Z,100420.91
2022-08-09T13:02:55.384Z,100426.06
2022-08-09T13:04:12.183Z,100433.59
2022-08-09T13:05:51.512Z,100434.28
2022-08-09T13:07:16.496Z,100442.88
2022-08-09T13:08:21.182Z,100446.94
2022-08-09T13:09:52.601Z,100437.50
2022-08-09T13:10:58.216Z,100404.53
2022-08-09T13:12:05.559Z,100418.41
2022-08-09T13:13:10.141Z,100388.63
2022-08-09T13:14:41.587Z,100437.28
2022-08-09T13:15:59.330Z,100428.47
2022-08-09T13:17:16.090Z,100414.16
2022-08-09T13:18:27.080Z,100423.84
2022-08-09T13:20:08.355Z,100423.28
2022-08-09T13:22:33.059Z,100397.47
2022-08-09T13:22:35.901Z,100430.81
2022-08-09T13:24:16.422Z,100414.69
2022-08-09T13:25:11.863Z,100422.81
2022-08-09T13:26:39.166Z,100418.13
2022-08-09T13:27:48.730Z,100415.44
2022-08-09T13:29:16.523Z,100394.47
2022-08-09T13:31:10.932Z,100419.72
2022-08-09T13:32:16.610Z,100413.13
2022-08-09T13:33:24.591Z,100402.50
2022-08-09T13:34:46.670Z,100380.28
2022-08-09T13:36:37.633Z,100406.91